sensor_id;sensor_type;location;lat;lon;timestamp;P1;durP1;ratioP1;P2;durP2;ratioP2
6727;SDS011;3401;52.504;13.430;2022-08-02T00:01:42;1019.47;;;896.45;;
6727;SDS011;3401;52.504;13.430;2022-08-02T00:04:12;1012.80;;;873.03;;
6727;SDS011;3401;52.504;13.430;2022-08-02T00:06:40;1059.18;;;934.25;;
6727;SDS011;3401;52.504;13.430;2022-08-02T00:09:08;1042.27;;;924.40;;
6727;SDS011;3401;52.504;13.430;2022-08-02T00:11:35;1029.47;;;910.60;;
6727;SDS011;3401;52.504;13.430;2022-08-02T00:14:08;1052.97;;;935.58;;
6727;SDS011;3401;52.504;13.430;2022-08-02T00:16:36;1034.97;;;904.87;;
6727;SDS011;3401;52.504;13.430;2022-08-02T00:19:04;1026.97;;;904.80;;
6727;SDS011;3401;52.504;13.430;2022-08-02T00:21:33;1024.13;;;892.10;;
6727;SDS011;3401;52.504;13.430;2022-08-02T00:24:02;1021.03;;;894.27;;
6727;SDS011;3401;52.504;13.430;2022-08-02T00:26:50;1023.23;;;904.40;;
6727;SDS011;3401;52.504;13.430;2022-08-02T00:29:18;1022.27;;;901.10;;
6727;SDS011;3401;52.504;13.430;2022-08-02T00:31:46;1031.77;;;909.33;;
6727;SDS011;3401;52.504;13.430;2022-08-02T00:34:14;1038.47;;;901.77;;
6727;SDS011;3401;52.504;13.430;2022-08-02T00:36:57;1037.20;;;915.90;;
6727;SDS011;3401;52.504;13.430;2022-08-02T00:39:26;1024.23;;;898.00;;
6727;SDS011;3401;52.504;13.430;2022-08-02T00:42:01;1033.43;;;916.57;;
6727;SDS011;3401;52.504;13.430;2022-08-02T00:44:29;1034.03;;;914.57;;
6727;SDS011;3401;52.504;13.430;2022-08-02T00:46:57;1041.40;;;926.67;;
6727;SDS011;3401;52.504;13.430;2022-08-02T00:49:25;1050.97;;;935.10;;
6727;SDS011;3401;52.504;13.430;2022-08-02T00:51:53;1035.00;;;918.57;;
6727;SDS011;3401;52.504;13.430;2022-08-02T00:54:22;1063.30;;;936.40;;
6727;SDS011;3401;52.504;13.430;2022-08-02T00:56:50;1078.50;;;947.40;;
6727;SDS011;3401;52.504;13.430;2022-08-02T00:59:18;1083.25;;;956.65;;
6727;SDS011;3401;52.504;13.430;2022-08-02T01:01:46;1082.97;;;945.40;;
6727;SDS011;3401;52.504;13.430;2022-08-02T01:04:23;1041.17;;;925.50;;
6727;SDS011;3401;52.504;13.430;2022-08-02T01:06:57;1021.40;;;906.90;;
6727;SDS011;3401;52.504;13.430;2022-08-02T01:09:27;1013.23;;;898.37;;
6727;SDS011;3401;52.504;13.430;2022-08-02T01:11:55;1030.07;;;913.57;;
6727;SDS011;3401;52.504;13.430;2022-08-02T01:14:28;1031.67;;;914.17;;
6727;SDS011;3401;52.504;13.430;2022-08-02T01:16:58;1035.17;;;918.27;;
6727;SDS011;3401;52.504;13.430;2022-08-02T01:19:32;1043.80;;;928.17;;
6727;SDS011;3401;52.504;13.430;2022-08-02T01:22:19;1034.23;;;919.83;;
6727;SDS011;3401;52.504;13.430;2022-08-02T01:25:27;1020.47;;;903.17;;
6727;SDS011;3401;52.504;13.430;2022-08-02T01:28:09;1031.07;;;913.57;;
6727;SDS011;3401;52.504;13.430;2022-08-02T01:30:43;1036.83;;;922.37;;
6727;SDS011;3401;52.504;13.430;2022-08-02T01:33:14;1046.17;;;930.67;;
6727;SDS011;3401;52.504;13.430;2022-08-02T01:35:44;1045.97;;;930.77;;
6727;SDS011;3401;52.504;13.430;2022-08-02T01:38:20;1043.97;;;928.23;;
6727;SDS011;3401;52.504;13.430;2022-08-02T01:40:50;1048.07;;;928.70;;
6727;SDS011;3401;52.504;13.430;2022-08-02T01:43:20;1044.37;;;928.00;;
6727;SDS011;3401;52.504;13.430;2022-08-02T01:45:48;1053.33;;;937.47;;
6727;SDS011;3401;52.504;13.430;2022-08-02T01:48:17;1054.83;;;939.07;;
6727;SDS011;3401;52.504;13.430;2022-08-02T01:50:45;1028.07;;;914.10;;
6727;SDS011;3401;52.504;13.430;2022-08-02T01:53:15;1020.57;;;897.70;;
6727;SDS011;3401;52.504;13.430;2022-08-02T01:55:45;1022.07;;;903.40;;
6727;SDS011;3401;52.504;13.430;2022-08-02T01:58:25;1031.83;;;915.77;;
6727;SDS011;3401;52.504;13.430;2022-08-02T02:00:55;1053.83;;;938.43;;
6727;SDS011;3401;52.504;13.430;2022-08-02T02:03:24;1070.67;;;949.60;;
6727;SDS011;3401;52.504;13.430;2022-08-02T02:05:53;1092.97;;;940.47;;
6727;SDS011;3401;52.504;13.430;2022-08-02T02:08:24;1066.28;;;941.30;;
6727;SDS011;3401;52.504;13.430;2022-08-02T02:10:55;1074.45;;;932.63;;
6727;SDS011;3401;52.504;13.430;2022-08-02T02:13:45;1088.67;;;951.03;;
6727;SDS011;3401;52.504;13.430;2022-08-02T02:16:14;1085.57;;;953.28;;
6727;SDS011;3401;52.504;13.430;2022-08-02T02:18:42;1065.82;;;937.53;;
6727;SDS011;3401;52.504;13.430;2022-08-02T02:21:11;1063.27;;;936.60;;
6727;SDS011;3401;52.504;13.430;2022-08-02T02:23:39;1052.10;;;936.13;;
6727;SDS011;3401;52.504;13.430;2022-08-02T02:26:09;1054.27;;;937.33;;
6727;SDS011;3401;52.504;13.430;2022-08-02T02:28:38;1068.23;;;948.60;;
6727;SDS011;3401;52.504;13.430;2022-08-02T02:31:08;1059.03;;;936.67;;
6727;SDS011;3401;52.504;13.430;2022-08-02T02:33:40;1059.40;;;934.50;;
6727;SDS011;3401;52.504;13.430;2022-08-02T02:36:11;1053.10;;;934.93;;
6727;SDS011;3401;52.504;13.430;2022-08-02T02:38:39;1053.87;;;928.80;;
6727;SDS011;3401;52.504;13.430;2022-08-02T02:41:08;1065.43;;;925.73;;
6727;SDS011;3401;52.504;13.430;2022-08-02T02:43:36;1052.72;;;925.55;;
6727;SDS011;3401;52.504;13.430;2022-08-02T02:46:05;1050.70;;;915.85;;
6727;SDS011;3401;52.504;13.430;2022-08-02T02:48:35;1057.25;;;919.90;;
6727;SDS011;3401;52.504;13.430;2022-08-02T02:51:04;1067.15;;;924.75;;
6727;SDS011;3401;52.504;13.430;2022-08-02T02:53:39;1054.13;;;912.63;;
6727;SDS011;3401;52.504;13.430;2022-08-02T02:56:27;1074.15;;;928.55;;
6727;SDS011;3401;52.504;13.430;2022-08-02T02:58:55;1054.50;;;925.28;;
6727;SDS011;3401;52.504;13.430;2022-08-02T03:01:27;1117.22;;;971.42;;
6727;SDS011;3401;52.504;13.430;2022-08-02T03:04:16;1129.53;;;986.70;;
6727;SDS011;3401;52.504;13.430;2022-08-02T03:06:44;1119.20;;;928.63;;
6727;SDS011;3401;52.504;13.430;2022-08-02T03:09:12;1071.72;;;918.60;;
6727;SDS011;3401;52.504;13.430;2022-08-02T03:11:40;1088.43;;;942.45;;
6727;SDS011;3401;52.504;13.430;2022-08-02T03:14:09;1077.45;;;918.70;;
6727;SDS011;3401;52.504;13.430;2022-08-02T03:16:43;1066.95;;;918.20;;
6727;SDS011;3401;52.504;13.430;2022-08-02T03:19:12;1050.53;;;930.42;;
6727;SDS011;3401;52.504;13.430;2022-08-02T03:21:40;1059.20;;;928.20;;
6727;SDS011;3401;52.504;13.430;2022-08-02T03:24:08;1069.03;;;940.45;;
6727;SDS011;3401;52.504;13.430;2022-08-02T03:26:36;1053.20;;;931.10;;
6727;SDS011;3401;52.504;13.430;2022-08-02T03:29:04;1056.53;;;927.20;;
6727;SDS011;3401;52.504;13.430;2022-08-02T03:31:36;1059.10;;;915.47;;
6727;SDS011;3401;52.504;13.430;2022-08-02T03:34:08;1062.85;;;932.22;;
6727;SDS011;3401;52.504;13.430;2022-08-02T03:36:35;1043.70;;;916.07;;
6727;SDS011;3401;52.504;13.430;2022-08-02T03:39:03;1040.23;;;919.57;;
6727;SDS011;3401;52.504;13.430;2022-08-02T03:41:32;1048.57;;;911.17;;
6727;SDS011;3401;52.504;13.430;2022-08-02T03:44:03;1063.03;;;939.83;;
6727;SDS011;3401;52.504;13.430;2022-08-02T03:46:32;1055.97;;;917.97;;
6727;SDS011;3401;52.504;13.430;2022-08-02T03:49:01;1084.43;;;951.58;;
6727;SDS011;3401;52.504;13.430;2022-08-02T03:51:30;1108.38;;;945.20;;
6727;SDS011;3401;52.504;13.430;2022-08-02T03:53:58;1136.85;;;974.30;;
6727;SDS011;3401;52.504;13.430;2022-08-02T03:56:27;1147.00;;;985.40;;
6727;SDS011;3401;52.504;13.430;2022-08-02T03:59:05;1141.97;;;980.92;;
6727;SDS011;3401;52.504;13.430;2022-08-02T04:01:36;1141.88;;;985.67;;
6727;SDS011;3401;52.504;13.430;2022-08-02T04:04:04;1134.88;;;960.60;;
6727;SDS011;3401;52.504;13.430;2022-08-02T04:06:34;1140.97;;;983.20;;
6727;SDS011;3401;52.504;13.430;2022-08-02T04:09:07;1043.30;;;763.15;;
6727;SDS011;3401;52.504;13.430;2022-08-02T04:11:35;1146.30;;;995.95;;
6727;SDS011;3401;52.504;13.430;2022-08-02T04:14:04;1145.93;;;999.90;;
6727;SDS011;3401;52.504;13.430;2022-08-02T04:16:38;1135.32;;;979.80;;
6727;SDS011;3401;52.504;13.430;2022-08-02T04:19:10;1122.22;;;970.33;;
6727;SDS011;3401;52.504;13.430;2022-08-02T04:21:42;1131.28;;;977.92;;
6727;SDS011;3401;52.504;13.430;2022-08-02T04:24:18;1117.97;;;968.80;;
6727;SDS011;3401;52.504;13.430;2022-08-02T04:26:50;1063.50;;;866.25;;
6727;SDS011;3401;52.504;13.430;2022-08-02T04:29:23;1021.60;;;674.13;;
6727;SDS011;3401;52.504;13.430;2022-08-02T04:31:52;1114.60;;;971.20;;
6727;SDS011;3401;52.504;13.430;2022-08-02T04:34:20;1122.82;;;942.75;;
6727;SDS011;3401;52.504;13.430;2022-08-02T04:36:49;1130.22;;;965.33;;
6727;SDS011;3401;52.504;13.430;2022-08-02T04:39:17;1119.70;;;963.83;;
6727;SDS011;3401;52.504;13.430;2022-08-02T04:41:45;1138.43;;;986.60;;
6727;SDS011;3401;52.504;13.430;2022-08-02T04:44:14;1132.05;;;981.45;;
6727;SDS011;3401;52.504;13.430;2022-08-02T04:46:45;1132.63;;;981.85;;
6727;SDS011;3401;52.504;13.430;2022-08-02T04:49:14;1072.43;;;928.50;;
6727;SDS011;3401;52.504;13.430;2022-08-02T04:51:42;1078.20;;;924.65;;
6727;SDS011;3401;52.504;13.430;2022-08-02T04:54:11;1120.13;;;966.45;;
6727;SDS011;3401;52.504;13.430;2022-08-02T04:56:39;1143.97;;;999.33;;
6727;SDS011;3401;52.504;13.430;2022-08-02T04:59:07;1176.88;;;999.90;;
6727;SDS011;3401;52.504;13.430;2022-08-02T05:01:35;1153.30;;;999.90;;
6727;SDS011;3401;52.504;13.430;2022-08-02T05:04:04;981.38;;;567.78;;
6727;SDS011;3401;52.504;13.430;2022-08-02T05:06:32;1022.42;;;676.53;;
6727;SDS011;3401;52.504;13.430;2022-08-02T05:09:00;1016.85;;;678.83;;
6727;SDS011;3401;52.504;13.430;2022-08-02T05:11:30;996.95;;;637.38;;
6727;SDS011;3401;52.504;13.430;2022-08-02T05:14:02;1021.75;;;731.65;;
6727;SDS011;3401;52.504;13.430;2022-08-02T05:16:31;1027.85;;;729.28;;
6727;SDS011;3401;52.504;13.430;2022-08-02T05:18:59;1031.32;;;765.25;;
6727;SDS011;3401;52.504;13.430;2022-08-02T05:21:28;1008.80;;;656.15;;
6727;SDS011;3401;52.504;13.430;2022-08-02T05:23:57;960.63;;;486.10;;
6727;SDS011;3401;52.504;13.430;2022-08-02T05:26:25;950.33;;;437.73;;
6727;SDS011;3401;52.504;13.430;2022-08-02T05:28:54;967.15;;;529.13;;
6727;SDS011;3401;52.504;13.430;2022-08-02T05:31:22;972.28;;;551.90;;
6727;SDS011;3401;52.504;13.430;2022-08-02T05:33:49;948.00;;;521.65;;
6727;SDS011;3401;52.504;13.430;2022-08-02T05:36:17;941.85;;;510.30;;
6727;SDS011;3401;52.504;13.430;2022-08-02T05:38:47;917.55;;;416.55;;
6727;SDS011;3401;52.504;13.430;2022-08-02T05:41:16;949.40;;;519.47;;
6727;SDS011;3401;52.504;13.430;2022-08-02T05:43:44;945.45;;;448.90;;
6727;SDS011;3401;52.504;13.430;2022-08-02T05:46:13;933.72;;;477.25;;
6727;SDS011;3401;52.504;13.430;2022-08-02T05:48:42;949.17;;;523.75;;
6727;SDS011;3401;52.504;13.430;2022-08-02T05:51:11;960.33;;;541.22;;
6727;SDS011;3401;52.504;13.430;2022-08-02T05:53:44;953.78;;;462.33;;
6727;SDS011;3401;52.504;13.430;2022-08-02T05:56:15;955.83;;;470.27;;
6727;SDS011;3401;52.504;13.430;2022-08-02T05:58:51;948.42;;;508.48;;
6727;SDS011;3401;52.504;13.430;2022-08-02T06:01:24;947.22;;;526.58;;
6727;SDS011;3401;52.504;13.430;2022-08-02T06:03:55;960.83;;;542.13;;
6727;SDS011;3401;52.504;13.430;2022-08-02T06:06:25;1003.33;;;650.92;;
6727;SDS011;3401;52.504;13.430;2022-08-02T06:08:54;929.40;;;508.73;;
6727;SDS011;3401;52.504;13.430;2022-08-02T06:11:29;924.33;;;489.52;;
6727;SDS011;3401;52.504;13.430;2022-08-02T06:14:02;915.97;;;523.33;;
6727;SDS011;3401;52.504;13.430;2022-08-02T06:16:33;872.90;;;452.77;;
6727;SDS011;3401;52.504;13.430;2022-08-02T06:19:08;821.25;;;447.85;;
6727;SDS011;3401;52.504;13.430;2022-08-02T06:21:36;824.38;;;460.27;;
6727;SDS011;3401;52.504;13.430;2022-08-02T06:24:26;806.67;;;434.30;;
6727;SDS011;3401;52.504;13.430;2022-08-02T06:26:54;803.10;;;435.83;;
6727;SDS011;3401;52.504;13.430;2022-08-02T06:29:23;784.83;;;372.73;;
6727;SDS011;3401;52.504;13.430;2022-08-02T06:31:52;785.97;;;399.15;;
6727;SDS011;3401;52.504;13.430;2022-08-02T06:34:20;781.88;;;395.92;;
6727;SDS011;3401;52.504;13.430;2022-08-02T06:36:49;779.53;;;370.42;;
6727;SDS011;3401;52.504;13.430;2022-08-02T06:39:21;794.72;;;430.35;;
6727;SDS011;3401;52.504;13.430;2022-08-02T06:41:53;728.38;;;264.40;;
6727;SDS011;3401;52.504;13.430;2022-08-02T06:44:35;723.13;;;270.85;;
6727;SDS011;3401;52.504;13.430;2022-08-02T06:47:18;705.88;;;256.40;;
6727;SDS011;3401;52.504;13.430;2022-08-02T06:49:46;705.58;;;253.90;;
6727;SDS011;3401;52.504;13.430;2022-08-02T06:52:20;708.97;;;254.55;;
6727;SDS011;3401;52.504;13.430;2022-08-02T06:54:54;708.03;;;252.52;;
6727;SDS011;3401;52.504;13.430;2022-08-02T06:57:23;712.88;;;267.13;;
6727;SDS011;3401;52.504;13.430;2022-08-02T06:59:51;711.28;;;263.85;;
6727;SDS011;3401;52.504;13.430;2022-08-02T07:02:20;712.42;;;262.75;;
6727;SDS011;3401;52.504;13.430;2022-08-02T07:04:48;698.05;;;244.57;;
6727;SDS011;3401;52.504;13.430;2022-08-02T07:07:17;709.78;;;244.32;;
6727;SDS011;3401;52.504;13.430;2022-08-02T07:09:45;705.22;;;247.75;;
6727;SDS011;3401;52.504;13.430;2022-08-02T07:12:26;695.00;;;231.15;;
6727;SDS011;3401;52.504;13.430;2022-08-02T07:14:55;698.80;;;239.70;;
6727;SDS011;3401;52.504;13.430;2022-08-02T07:17:25;700.95;;;242.52;;
6727;SDS011;3401;52.504;13.430;2022-08-02T07:19:53;686.70;;;214.98;;
6727;SDS011;3401;52.504;13.430;2022-08-02T07:22:20;692.20;;;220.38;;
6727;SDS011;3401;52.504;13.430;2022-08-02T07:24:50;687.65;;;217.40;;
6727;SDS011;3401;52.504;13.430;2022-08-02T07:27:18;690.13;;;217.38;;
6727;SDS011;3401;52.504;13.430;2022-08-02T07:29:46;690.97;;;220.35;;
6727;SDS011;3401;52.504;13.430;2022-08-02T07:32:14;692.30;;;231.90;;
6727;SDS011;3401;52.504;13.430;2022-08-02T07:34:43;702.75;;;245.23;;
6727;SDS011;3401;52.504;13.430;2022-08-02T07:37:18;689.53;;;231.77;;
6727;SDS011;3401;52.504;13.430;2022-08-02T07:40:07;686.13;;;216.50;;
6727;SDS011;3401;52.504;13.430;2022-08-02T07:42:44;703.35;;;237.05;;
6727;SDS011;3401;52.504;13.430;2022-08-02T07:45:13;683.63;;;208.32;;
6727;SDS011;3401;52.504;13.430;2022-08-02T07:47:41;687.60;;;212.63;;
6727;SDS011;3401;52.504;13.430;2022-08-02T07:50:12;692.90;;;222.55;;
6727;SDS011;3401;52.504;13.430;2022-08-02T07:52:42;691.10;;;225.30;;
6727;SDS011;3401;52.504;13.430;2022-08-02T07:55:12;700.45;;;240.55;;
6727;SDS011;3401;52.504;13.430;2022-08-02T07:57:40;696.63;;;226.90;;
6727;SDS011;3401;52.504;13.430;2022-08-02T08:00:13;700.92;;;238.73;;
6727;SDS011;3401;52.504;13.430;2022-08-02T08:02:43;683.55;;;217.27;;
6727;SDS011;3401;52.504;13.430;2022-08-02T08:05:12;695.72;;;224.07;;
6727;SDS011;3401;52.504;13.430;2022-08-02T08:07:40;681.58;;;208.90;;
6727;SDS011;3401;52.504;13.430;2022-08-02T08:10:08;685.42;;;210.10;;
6727;SDS011;3401;52.504;13.430;2022-08-02T08:12:37;684.55;;;216.52;;
6727;SDS011;3401;52.504;13.430;2022-08-02T08:15:05;702.05;;;227.10;;
6727;SDS011;3401;52.504;13.430;2022-08-02T08:17:33;688.42;;;215.98;;
6727;SDS011;3401;52.504;13.430;2022-08-02T08:20:02;678.38;;;204.50;;
6727;SDS011;3401;52.504;13.430;2022-08-02T08:22:32;680.75;;;203.40;;
6727;SDS011;3401;52.504;13.430;2022-08-02T08:25:00;679.10;;;200.07;;
6727;SDS011;3401;52.504;13.430;2022-08-02T08:27:29;674.42;;;198.45;;
6727;SDS011;3401;52.504;13.430;2022-08-02T08:29:57;682.95;;;212.48;;
6727;SDS011;3401;52.504;13.430;2022-08-02T08:32:26;731.38;;;273.95;;
6727;SDS011;3401;52.504;13.430;2022-08-02T08:34:54;746.90;;;310.75;;
6727;SDS011;3401;52.504;13.430;2022-08-02T08:37:21;691.10;;;217.77;;
6727;SDS011;3401;52.504;13.430;2022-08-02T08:39:51;683.13;;;212.65;;
6727;SDS011;3401;52.504;13.430;2022-08-02T08:42:24;705.03;;;254.18;;
6727;SDS011;3401;52.504;13.430;2022-08-02T08:44:53;690.05;;;225.38;;
6727;SDS011;3401;52.504;13.430;2022-08-02T08:47:23;699.78;;;246.95;;
6727;SDS011;3401;52.504;13.430;2022-08-02T08:50:00;683.47;;;215.25;;
6727;SDS011;3401;52.504;13.430;2022-08-02T08:52:28;680.80;;;205.85;;
6727;SDS011;3401;52.504;13.430;2022-08-02T08:55:00;717.83;;;266.77;;
6727;SDS011;3401;52.504;13.430;2022-08-02T08:57:28;687.35;;;216.27;;
6727;SDS011;3401;52.504;13.430;2022-08-02T08:59:57;703.97;;;252.55;;
6727;SDS011;3401;52.504;13.430;2022-08-02T09:02:25;705.38;;;255.20;;
6727;SDS011;3401;52.504;13.430;2022-08-02T09:04:54;703.45;;;250.40;;
6727;SDS011;3401;52.504;13.430;2022-08-02T09:07:22;702.38;;;238.40;;
6727;SDS011;3401;52.504;13.430;2022-08-02T09:09:50;715.58;;;268.15;;
6727;SDS011;3401;52.504;13.430;2022-08-02T09:12:20;716.45;;;263.40;;
6727;SDS011;3401;52.504;13.430;2022-08-02T09:14:50;721.88;;;269.25;;
6727;SDS011;3401;52.504;13.430;2022-08-02T09:17:18;753.63;;;328.90;;
6727;SDS011;3401;52.504;13.430;2022-08-02T09:19:47;773.35;;;394.10;;
6727;SDS011;3401;52.504;13.430;2022-08-02T09:22:33;779.42;;;386.58;;
6727;SDS011;3401;52.504;13.430;2022-08-02T09:25:00;820.88;;;486.92;;
6727;SDS011;3401;52.504;13.430;2022-08-02T09:27:34;709.42;;;241.73;;
6727;SDS011;3401;52.504;13.430;2022-08-02T09:30:02;700.60;;;230.45;;
6727;SDS011;3401;52.504;13.430;2022-08-02T09:32:45;703.10;;;249.02;;
6727;SDS011;3401;52.504;13.430;2022-08-02T09:35:29;719.05;;;268.48;;
6727;SDS011;3401;52.504;13.430;2022-08-02T09:38:18;716.75;;;241.05;;
6727;SDS011;3401;52.504;13.430;2022-08-02T09:40:45;717.95;;;266.75;;
6727;SDS011;3401;52.504;13.430;2022-08-02T09:43:15;725.30;;;285.73;;
6727;SDS011;3401;52.504;13.430;2022-08-02T09:45:43;744.20;;;319.50;;
6727;SDS011;3401;52.504;13.430;2022-08-02T09:48:11;750.05;;;362.85;;
6727;SDS011;3401;52.504;13.430;2022-08-02T09:50:39;808.78;;;511.33;;
6727;SDS011;3401;52.504;13.430;2022-08-02T09:53:10;798.28;;;490.95;;
6727;SDS011;3401;52.504;13.430;2022-08-02T09:55:39;772.00;;;376.90;;
6727;SDS011;3401;52.504;13.430;2022-08-02T09:58:18;792.03;;;418.30;;
6727;SDS011;3401;52.504;13.430;2022-08-02T10:00:53;765.15;;;386.33;;
6727;SDS011;3401;52.504;13.430;2022-08-02T10:03:21;827.70;;;512.40;;
6727;SDS011;3401;52.504;13.430;2022-08-02T10:06:07;806.50;;;445.23;;
6727;SDS011;3401;52.504;13.430;2022-08-02T10:08:36;697.85;;;235.30;;
6727;SDS011;3401;52.504;13.430;2022-08-02T10:11:07;692.50;;;231.63;;
6727;SDS011;3401;52.504;13.430;2022-08-02T10:13:37;687.25;;;229.27;;
6727;SDS011;3401;52.504;13.430;2022-08-02T10:16:05;680.70;;;221.07;;
6727;SDS011;3401;52.504;13.430;2022-08-02T10:18:33;696.63;;;233.43;;
6727;SDS011;3401;52.504;13.430;2022-08-02T10:21:06;707.72;;;250.07;;
6727;SDS011;3401;52.504;13.430;2022-08-02T10:23:38;700.90;;;230.35;;
6727;SDS011;3401;52.504;13.430;2022-08-02T10:26:06;699.22;;;241.48;;
6727;SDS011;3401;52.504;13.430;2022-08-02T10:28:34;848.35;;;510.77;;
6727;SDS011;3401;52.504;13.430;2022-08-02T10:31:07;737.08;;;292.38;;
6727;SDS011;3401;52.504;13.430;2022-08-02T10:33:35;1022.40;;;890.97;;
6727;SDS011;3401;52.504;13.430;2022-08-02T10:36:05;1108.93;;;989.13;;
6727;SDS011;3401;52.504;13.430;2022-08-02T10:38:41;1197.97;;;999.90;;
6727;SDS011;3401;52.504;13.430;2022-08-02T10:41:10;1190.03;;;999.90;;
6727;SDS011;3401;52.504;13.430;2022-08-02T10:43:39;1192.10;;;999.90;;
6727;SDS011;3401;52.504;13.430;2022-08-02T10:46:24;1181.73;;;999.90;;
6727;SDS011;3401;52.504;13.430;2022-08-02T10:49:00;1165.77;;;999.90;;
6727;SDS011;3401;52.504;13.430;2022-08-02T10:52:03;1128.53;;;999.90;;
6727;SDS011;3401;52.504;13.430;2022-08-02T10:54:35;1114.57;;;993.53;;
6727;SDS011;3401;52.504;13.430;2022-08-02T10:57:14;1115.83;;;995.30;;
6727;SDS011;3401;52.504;13.430;2022-08-02T10:59:44;1100.60;;;983.00;;
6727;SDS011;3401;52.504;13.430;2022-08-02T11:02:12;1097.83;;;979.77;;
6727;SDS011;3401;52.504;13.430;2022-08-02T11:07:31;1095.93;;;978.23;;
6727;SDS011;3401;52.504;13.430;2022-08-02T11:10:26;1118.77;;;997.23;;
6727;SDS011;3401;52.504;13.430;2022-08-02T11:12:58;1113.87;;;993.97;;
6727;SDS011;3401;52.504;13.430;2022-08-02T11:15:29;1118.43;;;996.83;;
6727;SDS011;3401;52.504;13.430;2022-08-02T11:17:57;1149.90;;;999.90;;
6727;SDS011;3401;52.504;13.430;2022-08-02T11:20:26;1160.43;;;999.90;;
6727;SDS011;3401;52.504;13.430;2022-08-02T11:22:54;1156.77;;;999.90;;
6727;SDS011;3401;52.504;13.430;2022-08-02T11:25:30;1164.97;;;999.90;;
6727;SDS011;3401;52.504;13.430;2022-08-02T11:28:20;1153.93;;;999.90;;
6727;SDS011;3401;52.504;13.430;2022-08-02T11:30:57;1133.27;;;999.90;;
6727;SDS011;3401;52.504;13.430;2022-08-02T11:33:29;1127.17;;;999.20;;
6727;SDS011;3401;52.504;13.430;2022-08-02T11:36:10;1132.97;;;999.90;;
6727;SDS011;3401;52.504;13.430;2022-08-02T11:38:38;1147.37;;;999.90;;
6727;SDS011;3401;52.504;13.430;2022-08-02T11:41:10;1126.33;;;999.57;;
6727;SDS011;3401;52.504;13.430;2022-08-02T11:44:05;1137.73;;;999.90;;
6727;SDS011;3401;52.504;13.430;2022-08-02T11:46:33;1158.63;;;999.90;;
6727;SDS011;3401;52.504;13.430;2022-08-02T11:49:11;1177.00;;;999.90;;
6727;SDS011;3401;52.504;13.430;2022-08-02T11:51:53;1222.77;;;999.90;;
6727;SDS011;3401;52.504;13.430;2022-08-02T11:54:26;1229.73;;;999.90;;
6727;SDS011;3401;52.504;13.430;2022-08-02T11:59:47;1272.77;;;999.90;;
6727;SDS011;3401;52.504;13.430;2022-08-02T12:02:16;1270.23;;;999.90;;
6727;SDS011;3401;52.504;13.430;2022-08-02T12:04:50;1254.27;;;999.90;;
6727;SDS011;3401;52.504;13.430;2022-08-02T12:07:26;1266.73;;;999.90;;
6727;SDS011;3401;52.504;13.430;2022-08-02T12:10:01;1306.30;;;999.90;;
6727;SDS011;3401;52.504;13.430;2022-08-02T12:12:32;1316.37;;;999.90;;
6727;SDS011;3401;52.504;13.430;2022-08-02T12:15:00;1307.70;;;999.90;;
6727;SDS011;3401;52.504;13.430;2022-08-02T12:17:28;1307.67;;;999.90;;
6727;SDS011;3401;52.504;13.430;2022-08-02T12:20:13;1324.10;;;999.90;;
6727;SDS011;3401;52.504;13.430;2022-08-02T12:22:42;1352.73;;;999.90;;
6727;SDS011;3401;52.504;13.430;2022-08-02T12:25:16;1339.63;;;999.90;;
6727;SDS011;3401;52.504;13.430;2022-08-02T12:28:14;1336.60;;;999.90;;
6727;SDS011;3401;52.504;13.430;2022-08-02T12:30:50;1334.70;;;999.90;;
6727;SDS011;3401;52.504;13.430;2022-08-02T12:33:19;1324.27;;;999.90;;
6727;SDS011;3401;52.504;13.430;2022-08-02T12:35:47;1316.13;;;999.90;;
6727;SDS011;3401;52.504;13.430;2022-08-02T12:38:15;1334.57;;;999.90;;
6727;SDS011;3401;52.504;13.430;2022-08-02T12:40:43;1334.60;;;999.90;;
6727;SDS011;3401;52.504;13.430;2022-08-02T12:43:17;1359.87;;;999.90;;
6727;SDS011;3401;52.504;13.430;2022-08-02T12:45:47;1394.80;;;999.90;;
6727;SDS011;3401;52.504;13.430;2022-08-02T12:48:16;1048.73;;;942.00;;
6727;SDS011;3401;52.504;13.430;2022-08-02T12:51:21;1034.63;;;927.50;;
6727;SDS011;3401;52.504;13.430;2022-08-02T12:54:10;1386.77;;;999.90;;
6727;SDS011;3401;52.504;13.430;2022-08-02T12:56:43;1357.57;;;999.90;;
6727;SDS011;3401;52.504;13.430;2022-08-02T12:59:13;1355.00;;;999.90;;
6727;SDS011;3401;52.504;13.430;2022-08-02T13:01:41;1366.93;;;999.90;;
6727;SDS011;3401;52.504;13.430;2022-08-02T13:04:10;1336.00;;;999.90;;
6727;SDS011;3401;52.504;13.430;2022-08-02T13:06:41;1318.10;;;999.90;;
6727;SDS011;3401;52.504;13.430;2022-08-02T13:09:12;1321.47;;;999.90;;
6727;SDS011;3401;52.504;13.430;2022-08-02T13:11:41;1330.03;;;999.90;;
6727;SDS011;3401;52.504;13.430;2022-08-02T13:14:09;1324.30;;;999.90;;
6727;SDS011;3401;52.504;13.430;2022-08-02T13:16:40;1335.37;;;999.90;;
6727;SDS011;3401;52.504;13.430;2022-08-02T13:19:08;1346.80;;;999.90;;
6727;SDS011;3401;52.504;13.430;2022-08-02T13:21:37;1333.47;;;999.90;;
6727;SDS011;3401;52.504;13.430;2022-08-02T13:24:25;1337.80;;;999.90;;
6727;SDS011;3401;52.504;13.430;2022-08-02T13:27:13;1340.67;;;999.90;;
6727;SDS011;3401;52.504;13.430;2022-08-02T13:29:41;1334.03;;;999.90;;
6727;SDS011;3401;52.504;13.430;2022-08-02T13:32:10;1351.23;;;999.90;;
6727;SDS011;3401;52.504;13.430;2022-08-02T13:34:39;1356.53;;;999.90;;
6727;SDS011;3401;52.504;13.430;2022-08-02T13:37:07;1374.83;;;999.90;;
6727;SDS011;3401;52.504;13.430;2022-08-02T13:39:35;1391.17;;;999.90;;
6727;SDS011;3401;52.504;13.430;2022-08-02T13:42:03;1380.03;;;999.90;;
6727;SDS011;3401;52.504;13.430;2022-08-02T13:44:32;1392.20;;;999.90;;
6727;SDS011;3401;52.504;13.430;2022-08-02T13:47:01;1351.27;;;999.90;;
6727;SDS011;3401;52.504;13.430;2022-08-02T13:49:30;1327.37;;;999.90;;
6727;SDS011;3401;52.504;13.430;2022-08-02T13:52:18;1358.07;;;999.90;;
6727;SDS011;3401;52.504;13.430;2022-08-02T13:54:46;1348.47;;;999.90;;
6727;SDS011;3401;52.504;13.430;2022-08-02T13:57:13;1345.70;;;999.90;;
6727;SDS011;3401;52.504;13.430;2022-08-02T13:59:41;1340.70;;;999.90;;
6727;SDS011;3401;52.504;13.430;2022-08-02T14:02:24;1325.63;;;999.90;;
6727;SDS011;3401;52.504;13.430;2022-08-02T14:04:54;1326.93;;;999.90;;
6727;SDS011;3401;52.504;13.430;2022-08-02T14:07:23;1336.67;;;999.90;;
6727;SDS011;3401;52.504;13.430;2022-08-02T14:09:51;1339.17;;;999.90;;
6727;SDS011;3401;52.504;13.430;2022-08-02T14:12:18;1351.63;;;999.90;;
6727;SDS011;3401;52.504;13.430;2022-08-02T14:14:46;1347.77;;;999.90;;
6727;SDS011;3401;52.504;13.430;2022-08-02T14:17:14;1366.63;;;999.90;;
6727;SDS011;3401;52.504;13.430;2022-08-02T14:19:44;1376.87;;;999.90;;
6727;SDS011;3401;52.504;13.430;2022-08-02T14:22:13;1381.90;;;999.90;;
6727;SDS011;3401;52.504;13.430;2022-08-02T14:24:41;1379.13;;;999.90;;
6727;SDS011;3401;52.504;13.430;2022-08-02T14:27:09;1368.40;;;999.90;;
6727;SDS011;3401;52.504;13.430;2022-08-02T14:29:37;1363.40;;;999.90;;
6727;SDS011;3401;52.504;13.430;2022-08-02T14:32:05;1345.67;;;999.90;;